Time;durP1;ratioP1;P1;durP2;ratioP2;P2;SDS_P1;SDS_P2;PMS_P1;PMS_P2;Temp;Humidity;BMP_temperature;BMP_pressure;BME280_temperature;BME280_humidity;BME280_pressure;Samples;Min_cycle;Max_cycle;Signal;HPM_P1;HPM_P2
2023/02/22 00:01:49;;;;;;;2.63;2.40;;;;;;;20.04;48.54;97343.44;4933132;29;20201;-86
2023/02/22 00:04:19;;;;;;;2.50;2.30;;;;;;;20.62;48.52;97442.34;4928922;29;20588;-86
2023/02/22 00:06:47;;;;;;;2.20;2.00;;;;;;;20.62;48.31;97438.91;4923392;29;20628;-86
2023/02/22 00:09:19;;;;;;;2.57;2.37;;;;;;;20.62;48.58;97444.03;4931001;29;20249;-86
2023/02/22 00:11:51;;;;;;;2.33;2.10;;;;;;;20.60;48.45;97438.88;4915023;29;20225;-86
2023/02/22 00:14:20;;;;;;;2.30;2.10;;;;;;;19.75;48.40;97322.09;4922582;29;20264;-86
2023/02/22 00:16:47;;;;;;;2.67;2.47;;;;;;;20.61;48.55;97434.63;4920215;29;20671;-86
2023/02/22 00:19:17;;;;;;;2.40;2.20;;;;;;;20.59;48.43;97426.94;4928209;29;20205;-86
2023/02/22 00:21:51;;;;;;;2.33;2.13;;;;;;;17.28;48.28;96877.41;4931516;29;20210;-84
2023/02/22 00:24:24;;;;;;;2.43;2.23;;;;;;;20.59;48.81;97429.50;4912872;29;20220;-86
2023/02/22 00:26:56;;;;;;;2.40;2.20;;;;;;;18.72;48.39;97115.59;4917280;29;20561;-83
2023/02/22 00:29:23;;;;;;;3.37;2.33;;;;;;;17.19;48.66;96856.75;4919594;29;20549;-85
2023/02/22 00:31:50;;;;;;;2.40;2.20;;;;;;;20.60;48.52;97430.38;4904785;29;20201;-86
2023/02/22 00:34:17;;;;;;;2.63;2.43;;;;;;;20.59;48.44;97428.59;4925172;29;20233;-86
2023/02/22 00:36:47;;;;;;;2.30;2.10;;;;;;;20.59;48.62;97424.38;4922353;29;20236;-86
2023/02/22 00:39:14;;;;;;;2.50;2.30;;;;;;;20.58;48.34;97422.66;4917461;29;20434;-87
2023/02/22 00:41:41;;;;;;;2.60;2.40;;;;;;;20.58;48.43;97425.22;4925729;29;20205;-85
2023/02/22 00:44:07;;;;;;;2.53;2.33;;;;;;;18.06;48.35;96985.25;4920696;29;20229;-86
2023/02/22 00:46:34;;;;;;;2.40;2.20;;;;;;;19.41;48.57;97219.81;4931771;29;20288;-86
2023/02/22 00:49:01;;;;;;;2.73;2.50;;;;;;;20.59;48.65;97418.41;4927754;29;20609;-85
2023/02/22 00:51:27;;;;;;;2.60;2.40;;;;;;;16.04;47.62;96666.47;4926431;29;20225;-85
2023/02/22 00:53:54;;;;;;;2.60;2.40;;;;;;;20.59;48.92;97423.50;4910271;29;20307;-86
2023/02/22 00:56:21;;;;;;;2.60;2.40;;;;;;;20.31;48.45;97469.41;4931589;29;20288;-85
2023/02/22 00:58:49;;;;;;;2.10;2.00;;;;;;;19.02;48.73;97145.47;4928765;29;20209;-86
2023/02/22 01:01:16;;;;;;;2.50;2.30;;;;;;;20.15;48.58;97339.56;4932712;29;20301;-86
2023/02/22 01:03:43;;;;;;;2.87;2.57;;;;;;;14.07;48.55;96323.19;4932567;29;20225;-86
2023/02/22 01:06:12;;;;;;;2.80;2.60;;;;;;;17.49;48.68;96880.72;4920424;29;20292;-85
2023/02/22 01:08:43;;;;;;;2.60;2.40;;;;;;;19.86;48.55;97287.59;4932622;29;20252;-86
2023/02/22 01:11:09;;;;;;;2.53;2.33;;;;;;;19.55;48.58;97252.59;4923164;29;20205;-86
2023/02/22 01:13:37;;;;;;;2.60;2.40;;;;;;;20.59;48.77;97405.63;4924200;29;20717;-86
2023/02/22 01:16:07;;;;;;;2.30;2.13;;;;;;;17.52;48.47;96875.75;4927946;29;20658;-86
2023/02/22 01:18:36;;;;;;;2.40;2.20;;;;;;;20.58;48.71;97401.34;4926956;29;20459;-85
2023/02/22 01:21:03;;;;;;;2.67;2.40;;;;;;;11.44;48.30;95820.16;4923747;29;20209;-86
2023/02/22 01:23:30;;;;;;;2.30;2.10;;;;;;;19.66;48.55;97235.13;4916877;29;20224;-86
2023/02/22 01:25:57;;;;;;;2.53;2.33;;;;;;;20.59;48.46;97391.19;4905649;29;20232;-85
2023/02/22 01:28:24;;;;;;;2.57;2.37;;;;;;;20.59;48.46;97397.97;4916426;29;20210;-86
2023/02/22 01:30:50;;;;;;;2.43;2.23;;;;;;;19.83;48.90;97264.53;4916740;29;20205;-86
2023/02/22 01:33:17;;;;;;;2.40;2.20;;;;;;;16.85;48.31;96745.59;4933847;29;20228;-85
2023/02/22 01:35:45;;;;;;;3.50;2.80;;;;;;;20.60;48.34;97392.06;4917812;29;20205;-86
2023/02/22 01:38:13;;;;;;;2.40;2.20;;;;;;;18.80;48.54;97084.47;4912969;29;20201;-86
2023/02/22 01:40:49;;;;;;;2.77;2.43;;;;;;;19.16;48.21;97149.31;4917872;29;20258;-86
2023/02/22 01:43:22;;;;;;;2.73;2.53;;;;;;;17.63;48.27;96892.22;4917398;29;20663;-86
2023/02/22 01:45:59;;;;;;;3.13;2.50;;;;;;;20.58;48.75;97376.69;4925879;29;20453;-86
2023/02/22 01:48:34;;;;;;;2.60;2.40;;;;;;;16.40;48.48;96685.56;4911104;29;20208;-85
2023/02/22 01:51:11;;;;;;;2.40;2.20;;;;;;;20.59;48.24;97377.53;4933165;29;20218;-86
2023/02/22 01:53:51;;;;;;;2.70;2.50;;;;;;;20.58;48.57;97380.94;4900750;29;20729;-86
2023/02/22 01:56:18;;;;;;;2.90;2.63;;;;;;;20.58;48.61;97371.59;4922582;29;20627;-85
2023/02/22 01:58:48;;;;;;;2.50;2.30;;;;;;;20.57;48.44;97374.94;4908035;29;20261;-85
2023/02/22 02:01:15;;;;;;;2.60;2.40;;;;;;;20.58;48.46;97376.69;4917929;29;20197;-86
2023/02/22 02:03:47;;;;;;;2.93;2.67;;;;;;;20.06;48.40;97281.44;4917615;29;20229;-86
2023/02/22 02:06:14;;;;;;;2.50;2.30;;;;;;;20.56;48.50;97368.13;4916497;29;20232;-86
2023/02/22 02:08:54;;;;;;;2.67;2.47;;;;;;;20.13;48.49;97295.28;4917027;29;20201;-86
2023/02/22 02:11:24;;;;;;;5.47;2.97;;;;;;;19.07;48.41;97110.81;4902871;29;20201;-86
2023/02/22 02:13:53;;;;;;;4.73;2.70;;;;;;;20.57;48.67;97366.44;4900378;29;20233;-85
2023/02/22 02:16:26;;;;;;;2.73;2.53;;;;;;;20.01;48.74;97277.88;4915525;29;20269;-85
2023/02/22 02:18:53;;;;;;;3.10;2.40;;;;;;;17.71;48.28;96888.28;4915644;29;20210;-86
2023/02/22 02:21:39;;;;;;;2.90;2.60;;;;;;;18.92;48.71;97082.31;4930153;29;20212;-86
2023/02/22 02:24:27;;;;;;;2.93;2.63;;;;;;;20.56;48.54;97359.59;4905305;29;20224;-86
2023/02/22 02:27:01;;;;;;;2.83;2.57;;;;;;;20.56;48.34;97362.13;4927621;29;20288;-86
2023/02/22 02:29:50;;;;;;;2.47;2.27;;;;;;;20.56;48.67;97360.47;4926987;29;20229;-85
2023/02/22 02:32:25;;;;;;;2.90;2.60;;;;;;;20.55;48.65;97353.63;4922816;29;20209;-86
2023/02/22 02:35:14;;;;;;;2.60;2.40;;;;;;;20.55;48.67;97361.28;4921279;29;20307;-86
2023/02/22 02:37:49;;;;;;;2.90;2.60;;;;;;;20.55;48.67;97355.31;4929073;29;20209;-86
2023/02/22 02:40:22;;;;;;;2.57;2.37;;;;;;;20.54;48.65;97351.88;4924235;29;20680;-82
2023/02/22 02:42:54;;;;;;;2.63;2.43;;;;;;;20.27;48.71;97301.66;4932693;29;20670;-86
2023/02/22 02:45:29;;;;;;;2.97;2.67;;;;;;;20.06;48.63;97286.53;4922177;29;20773;-86
2023/02/22 02:47:57;;;;;;;2.60;2.40;;;;;;;20.54;48.66;97362.09;4914384;29;20197;-84
2023/02/22 02:50:30;;;;;;;3.03;2.77;;;;;;;20.55;48.53;97347.66;4909795;29;20227;-85
2023/02/22 02:52:58;;;;;;;2.87;2.63;;;;;;;19.84;48.47;97225.50;4930476;29;20229;-86
2023/02/22 02:55:29;;;;;;;2.70;2.50;;;;;;;18.53;48.66;97019.09;4919662;29;20225;-86
2023/02/22 02:57:56;;;;;;;2.60;2.40;;;;;;;17.85;48.42;96867.59;4915013;29;20229;-84
2023/02/22 03:00:26;;;;;;;2.50;2.30;;;;;;;20.54;48.50;97334.00;4900088;29;20233;-86
2023/02/22 03:03:04;;;;;;;2.70;2.40;;;;;;;20.55;48.69;97330.66;4930206;29;20205;-86
2023/02/22 03:06:03;;;;;;;2.50;2.30;;;;;;;16.12;48.31;96610.22;4920542;29;20690;-86
2023/02/22 03:08:55;;;;;;;2.93;2.70;;;;;;;15.50;48.53;96485.53;4922774;29;20243;-86
2023/02/22 03:11:33;;;;;;;2.60;2.40;;;;;;;20.54;48.56;97334.00;4919131;29;20205;-86
2023/02/22 03:14:14;;;;;;;2.57;2.37;;;;;;;20.55;48.73;97325.53;4916028;29;20224;-86
2023/02/22 03:16:44;;;;;;;2.60;2.40;;;;;;;20.24;48.56;97273.50;4927784;29;20205;-86
2023/02/22 03:19:39;;;;;;;2.87;2.60;;;;;;;20.55;48.56;97325.53;4923422;29;20237;-85
2023/02/22 03:22:36;;;;;;;2.53;2.33;;;;;;;20.56;48.60;97369.78;4893277;29;20218;-86
2023/02/22 03:25:14;;;;;;;3.10;2.90;;;;;;;20.57;48.59;97333.25;4931535;29;20251;-85
2023/02/22 03:28:12;;;;;;;2.50;2.30;;;;;;;20.14;48.48;97251.09;4914466;29;20632;-85
2023/02/22 03:30:43;;;;;;;3.13;2.83;;;;;;;18.31;48.48;96976.78;4922309;29;20685;-85
2023/02/22 03:33:32;;;;;;;3.00;2.70;;;;;;;20.25;48.18;97311.81;4917204;29;20240;-84
2023/02/22 03:36:02;;;;;;;2.83;2.60;;;;;;;19.92;48.49;97221.47;4909842;29;20202;-86
2023/02/22 03:38:29;;;;;;;3.87;2.73;;;;;;;20.58;48.43;97338.41;4917643;29;20313;-85
2023/02/22 03:40:59;;;;;;;2.93;2.73;;;;;;;20.58;48.27;97320.53;4915164;29;20205;-86
2023/02/22 03:43:43;;;;;;;2.70;2.50;;;;;;;20.60;48.46;97330.78;4901410;29;20201;-86
2023/02/22 03:46:11;;;;;;;3.13;2.90;;;;;;;19.08;48.54;97058.22;4908802;29;20204;-84
2023/02/22 03:49:23;;;;;;;3.07;2.77;;;;;;;20.59;48.31;97327.38;4926549;29;20213;-87
2023/02/22 03:51:52;;;;;;;3.20;2.90;;;;;;;20.59;48.30;97321.38;4926499;29;20716;-86
2023/02/22 03:54:19;;;;;;;3.03;2.83;;;;;;;20.59;48.26;97324.81;4922271;29;20288;-86
2023/02/22 03:56:52;;;;;;;3.10;2.80;;;;;;;17.98;48.41;96895.16;4918033;29;20202;-86
2023/02/22 03:59:18;;;;;;;3.00;2.80;;;;;;;20.59;48.46;97327.38;4906609;29;20629;-86
2023/02/22 04:01:45;;;;;;;2.70;2.50;;;;;;;20.57;49.05;97334.09;4924575;29;20300;-84
2023/02/22 04:04:12;;;;;;;2.73;2.53;;;;;;;19.86;48.42;97237.47;4925776;29;20217;-86
2023/02/22 04:06:38;;;;;;;2.90;2.70;;;;;;;19.76;48.56;97193.78;4920634;29;20675;-86
2023/02/22 04:09:07;;;;;;;2.63;2.43;;;;;;;20.56;48.64;97342.59;4922782;29;20240;-83
2023/02/22 04:11:34;;;;;;;3.03;2.67;;;;;;;20.56;48.38;97349.38;4900030;29;20650;-82
2023/02/22 04:14:01;;;;;;;3.20;2.90;;;;;;;20.56;48.20;97345.13;4901378;29;20259;-86
2023/02/22 04:16:27;;;;;;;2.80;2.60;;;;;;;20.56;48.70;97342.59;4932053;29;20264;-85
2023/02/22 04:18:54;;;;;;;2.90;2.70;;;;;;;20.34;48.69;97309.56;4929114;29;20705;-86
2023/02/22 04:21:21;;;;;;;2.83;2.63;;;;;;;20.54;48.63;97341.66;4927957;29;20630;-86
2023/02/22 04:23:50;;;;;;;2.60;2.40;;;;;;;18.30;48.54;96975.06;4903603;29;20221;-86
2023/02/22 04:26:19;;;;;;;2.70;2.50;;;;;;;20.55;48.96;97343.41;4913698;29;20202;-84
2023/02/22 04:28:45;;;;;;;3.00;2.70;;;;;;;17.86;48.40;96871.84;4928672;29;20297;-86
2023/02/22 04:31:12;;;;;;;2.80;2.60;;;;;;;20.55;48.47;97327.22;4916879;29;20710;-85
2023/02/22 04:33:39;;;;;;;2.70;2.50;;;;;;;20.56;48.68;97323.84;4934524;29;20674;-84
2023/02/22 04:36:06;;;;;;;3.63;2.90;;;;;;;20.56;48.65;97318.72;4927527;29;20202;-85
2023/02/22 04:38:35;;;;;;;3.10;2.80;;;;;;;18.30;48.79;96942.00;4931033;29;20287;-84
2023/02/22 04:41:02;;;;;;;2.37;2.17;;;;;;;20.56;48.74;97314.50;4906765;29;20208;-85
2023/02/22 04:43:30;;;;;;;2.80;2.60;;;;;;;20.56;48.42;97321.28;4927087;29;20687;-85
2023/02/22 04:45:57;;;;;;;3.13;2.83;;;;;;;20.57;48.64;97315.38;4932153;29;20198;-83
2023/02/22 04:48:24;;;;;;;3.23;2.97;;;;;;;20.56;48.62;97308.53;4935368;29;20208;-85
2023/02/22 04:50:51;;;;;;;3.80;3.07;;;;;;;20.57;48.52;97305.16;4938463;29;20201;-85
2023/02/22 04:53:17;;;;;;;3.23;2.57;;;;;;;20.56;47.98;97309.41;4936554;29;20230;-86
2023/02/22 04:55:44;;;;;;;3.00;2.70;;;;;;;20.28;48.63;97260.03;4935122;29;20204;-83
2023/02/22 04:58:10;;;;;;;3.37;3.07;;;;;;;20.58;48.09;97306.88;4920820;29;20236;-86
2023/02/22 05:00:37;;;;;;;2.73;2.53;;;;;;;19.97;48.50;97207.19;4934713;29;20671;-85
2023/02/22 05:03:04;;;;;;;3.00;2.70;;;;;;;20.31;48.53;97263.53;4934568;29;20238;-85
2023/02/22 05:05:30;;;;;;;3.40;3.10;;;;;;;20.59;48.64;97306.06;4931525;29;20627;-85
2023/02/22 05:07:57;;;;;;;3.20;2.90;;;;;;;20.57;48.55;97306.00;4931599;29;20205;-85
2023/02/22 05:10:23;;;;;;;3.17;2.87;;;;;;;20.59;48.57;97295.84;4934100;29;20205;-85
2023/02/22 05:12:50;;;;;;;4.33;2.93;;;;;;;20.59;48.44;97308.59;4928602;29;20209;-85
2023/02/22 05:15:20;;;;;;;3.40;3.10;;;;;;;20.58;48.54;97302.66;4931298;29;20221;-86
2023/02/22 05:17:47;;;;;;;3.30;3.00;;;;;;;19.48;48.23;97117.28;4928294;29;20209;-84
2023/02/22 05:20:21;;;;;;;3.17;2.87;;;;;;;20.59;48.39;97318.81;4919974;29;20209;-82
2023/02/22 05:22:47;;;;;;;3.50;3.03;;;;;;;18.07;48.80;96884.41;4906936;29;20271;-86
2023/02/22 05:25:14;;;;;;;3.03;2.83;;;;;;;20.59;48.42;97295.84;4920144;29;20306;-85
2023/02/22 05:27:41;;;;;;;3.57;3.10;;;;;;;20.58;48.67;97287.34;4922489;29;20228;-86
2023/02/22 05:30:09;;;;;;;2.97;2.67;;;;;;;20.60;48.53;97295.03;4934529;29;20209;-85
2023/02/22 05:32:36;;;;;;;5.33;3.80;;;;;;;20.59;48.07;97290.75;4917664;29;20205;-87
2023/02/22 05:35:04;;;;;;;5.50;5.00;;;;;;;19.77;45.10;97149.59;4930398;29;20316;-86
2023/02/22 05:37:31;;;;;;;8.97;5.77;;;;;;;20.56;42.59;97288.97;4915092;29;20201;-85
2023/02/22 05:39:58;;;;;;;7.67;6.70;;;;;;;19.77;40.96;97154.69;4926524;29;20209;-86
2023/02/22 05:42:24;;;;;;;7.87;6.67;;;;;;;20.55;39.79;97291.47;4916551;29;20212;-85
2023/02/22 05:44:51;;;;;;;8.50;6.93;;;;;;;20.35;39.50;97251.72;4935465;29;20235;-85
2023/02/22 05:47:18;;;;;;;9.23;7.03;;;;;;;20.50;39.14;97283.69;4931170;29;20217;-85
2023/02/22 05:49:45;;;;;;;9.13;6.57;;;;;;;20.20;38.89;97241.06;4935715;29;20205;-85
2023/02/22 05:52:11;;;;;;;8.10;7.17;;;;;;;20.46;38.82;97289.50;4933199;29;20205;-85
2023/02/22 05:54:38;;;;;;;13.20;6.90;;;;;;;20.44;38.43;97280.06;4935966;29;20761;-86
2023/02/22 05:57:04;;;;;;;8.97;6.73;;;;;;;20.42;39.06;97279.16;4934449;29;20211;-86
2023/02/22 05:59:31;;;;;;;6.97;6.23;;;;;;;18.30;40.08;96920.75;4920428;29;20205;-87
2023/02/22 06:01:58;;;;;;;7.53;6.63;;;;;;;20.39;40.89;97285.03;4914171;29;20209;-85
2023/02/22 06:04:24;;;;;;;7.37;6.57;;;;;;;20.38;41.79;97283.31;4934723;29;20224;-85
2023/02/22 06:06:51;;;;;;;7.37;5.70;;;;;;;20.37;41.95;97284.13;4935077;29;20583;-87
2023/02/22 06:09:17;;;;;;;6.70;5.80;;;;;;;20.37;42.52;97289.22;4935655;29;20296;-85
2023/02/22 06:11:44;;;;;;;6.97;6.23;;;;;;;19.34;42.70;97108.34;4928339;29;20276;-84
2023/02/22 06:14:10;;;;;;;7.23;6.27;;;;;;;20.37;42.55;97281.56;4913560;29;20229;-87
2023/02/22 06:16:37;;;;;;;8.13;6.10;;;;;;;19.32;43.40;97107.41;4928924;29;20292;-87
2023/02/22 06:19:03;;;;;;;6.13;5.57;;;;;;;20.38;43.46;97290.97;4896481;29;20304;-87
2023/02/22 06:21:30;;;;;;;6.07;5.33;;;;;;;19.12;43.79;97068.56;4936310;29;20220;-87
2023/02/22 06:23:56;;;;;;;5.80;5.20;;;;;;;19.36;44.01;97110.09;4916995;29;20229;-87
2023/02/22 06:26:23;;;;;;;7.50;4.93;;;;;;;19.14;44.02;97083.88;4918014;29;20678;-87
2023/02/22 06:28:49;;;;;;;5.90;4.97;;;;;;;18.50;44.22;96966.41;4927668;29;20201;-89
2023/02/22 06:31:16;;;;;;;5.43;4.93;;;;;;;20.07;44.56;97244.88;4896191;29;20208;-88
2023/02/22 06:33:43;;;;;;;6.47;5.03;;;;;;;18.56;44.05;96979.31;4921294;29;20225;-87
2023/02/22 06:36:10;;;;;;;6.23;5.23;;;;;;;19.23;43.99;97087.59;4888598;29;20205;-87
2023/02/22 06:38:36;;;;;;;5.50;4.90;;;;;;;17.26;44.02;96750.38;4923340;29;20228;-87
2023/02/22 06:41:03;;;;;;;6.20;4.83;;;;;;;18.28;44.55;96928.34;4918447;29;20251;-88
2023/02/22 06:43:30;;;;;;;6.17;4.47;;;;;;;19.43;44.48;97134.09;4930292;29;20283;-88
2023/02/22 06:45:56;;;;;;;5.03;4.53;;;;;;;20.44;44.65;97301.38;4898777;29;20209;-86
2023/02/22 06:48:23;;;;;;;10.93;5.30;;;;;;;20.10;43.23;97250.09;4913086;29;20196;-86
2023/02/22 06:50:50;;;;;;;6.30;5.40;;;;;;;19.93;43.10;97223.22;4913385;29;20712;-85
2023/02/22 06:53:16;;;;;;;5.80;5.20;;;;;;;19.93;42.76;97221.50;4912182;29;20787;-85
2023/02/22 06:55:43;;;;;;;8.73;6.63;;;;;;;19.30;41.35;97119.25;4931472;29;20224;-86
2023/02/22 06:58:09;;;;;;;10.17;6.83;;;;;;;19.56;40.01;97156.59;4920909;29;20305;-85
2023/02/22 07:00:36;;;;;;;8.80;6.90;;;;;;;20.42;39.36;97314.88;4900086;29;20287;-85
2023/02/22 07:03:03;;;;;;;10.37;6.37;;;;;;;20.42;39.57;97309.78;4888757;29;20209;-85
2023/02/22 07:05:30;;;;;;;7.57;6.13;;;;;;;18.62;40.29;97007.50;4903344;29;20232;-85
2023/02/22 07:08:01;;;;;;;25.33;7.73;;;;;;;20.20;40.96;97287.88;4891587;29;20220;-86
2023/02/22 07:10:29;;;;;;;6.50;5.80;;;;;;;20.37;41.54;97317.31;4895167;29;20215;-85
2023/02/22 07:12:55;;;;;;;7.53;5.90;;;;;;;19.72;41.66;97213.19;4908066;29;20256;-85
2023/02/22 07:15:23;;;;;;;7.93;5.83;;;;;;;20.26;42.08;97313.56;4889627;29;20236;-85
2023/02/22 07:17:50;;;;;;;6.50;5.80;;;;;;;20.35;42.41;97318.97;4889398;29;20605;-85
2023/02/22 07:20:19;;;;;;;6.63;5.93;;;;;;;20.36;42.57;97330.91;4883918;29;20213;-86
2023/02/22 07:22:46;;;;;;;5.80;5.20;;;;;;;20.23;42.61;97303.28;4895404;29;20209;-85
2023/02/22 07:25:13;;;;;;;7.70;5.40;;;;;;;20.36;42.73;97327.47;4890874;29;20229;-85
2023/02/22 07:27:40;;;;;;;5.93;5.17;;;;;;;20.36;43.13;97336.00;4893501;29;20448;-85
2023/02/22 07:30:14;;;;;;;5.97;5.00;;;;;;;20.20;42.97;97292.09;4897962;29;20268;-85
2023/02/22 07:32:41;;;;;;;5.47;4.97;;;;;;;20.39;43.06;97322.47;4910255;29;20247;-85
2023/02/22 07:35:16;;;;;;;5.90;5.30;;;;;;;20.40;43.49;97326.75;4917647;29;20229;-85
2023/02/22 07:37:43;;;;;;;6.00;5.30;;;;;;;20.41;43.76;97320.81;4910042;29;20315;-87
2023/02/22 07:40:10;;;;;;;6.30;4.53;;;;;;;20.40;43.69;97319.94;4891855;29;20289;-86
2023/02/22 07:42:53;;;;;;;5.67;4.63;;;;;;;18.27;43.80;96971.53;4903570;29;20214;-85
2023/02/22 07:45:19;;;;;;;5.47;4.80;;;;;;;20.41;43.79;97316.59;4924962;29;20366;-86
2023/02/22 07:47:47;;;;;;;6.83;5.07;;;;;;;19.50;43.87;97153.84;4894850;29;20685;-86
2023/02/22 07:50:14;;;;;;;5.33;4.40;;;;;;;20.41;44.00;97308.06;4903412;29;20268;-86
2023/02/22 07:52:48;;;;;;;6.13;4.10;;;;;;;20.42;44.39;97309.78;4897391;29;20927;-86
2023/02/22 07:55:16;;;;;;;5.20;4.70;;;;;;;20.36;44.25;97300.28;4917439;29;20232;-86
2023/02/22 07:57:44;;;;;;;6.70;4.53;;;;;;;20.28;44.24;97283.00;4915638;29;20216;-86
2023/02/22 08:00:13;;;;;;;4.97;4.47;;;;;;;20.22;44.26;97273.47;4915397;29;20217;-86
2023/02/22 08:02:42;;;;;;;5.20;4.70;;;;;;;20.39;44.49;97310.56;4901706;29;20602;-86
2023/02/22 08:05:09;;;;;;;4.23;3.83;;;;;;;20.41;44.34;97306.38;4888280;29;20248;-86
2023/02/22 08:07:36;;;;;;;4.43;4.03;;;;;;;20.42;44.65;97315.75;4898079;29;20231;-88
2023/02/22 08:10:05;;;;;;;4.50;4.10;;;;;;;20.42;44.54;97305.56;4901179;29;20244;-85
2023/02/22 08:12:35;;;;;;;4.70;4.30;;;;;;;19.53;44.80;97147.19;4905190;29;20238;-86
2023/02/22 08:15:03;;;;;;;4.50;4.10;;;;;;;20.42;44.72;97305.56;4917011;29;20236;-85
2023/02/22 08:17:30;;;;;;;5.20;4.10;;;;;;;20.42;44.97;97303.00;4931806;29;20224;-85
2023/02/22 08:19:56;;;;;;;3.97;3.57;;;;;;;20.43;44.79;97307.28;4900102;29;20224;-86
2023/02/22 08:22:23;;;;;;;4.90;4.40;;;;;;;20.43;45.04;97311.53;4893892;29;20761;-85
2023/02/22 08:24:53;;;;;;;4.00;3.60;;;;;;;20.38;44.79;97295.22;4900248;29;20225;-85
2023/02/22 08:27:24;;;;;;;4.57;3.77;;;;;;;19.83;45.21;97196.56;4893765;29;20209;-86
2023/02/22 08:29:51;;;;;;;4.13;3.73;;;;;;;20.37;45.25;97302.00;4900779;29;20209;-86
2023/02/22 08:32:17;;;;;;;4.07;3.70;;;;;;;20.11;45.29;97243.31;4915635;29;20304;-85
2023/02/22 08:34:44;;;;;;;5.57;3.93;;;;;;;20.44;45.18;97301.38;4911850;29;20665;-85
2023/02/22 08:37:11;;;;;;;4.17;3.77;;;;;;;20.44;45.09;97298.81;4901130;29;20213;-86
2023/02/22 08:39:37;;;;;;;3.97;3.60;;;;;;;20.44;45.23;97295.38;4903137;29;20208;-87
2023/02/22 08:42:04;;;;;;;4.10;3.70;;;;;;;20.45;45.21;97302.22;4916322;29;20218;-86
2023/02/22 08:44:31;;;;;;;3.90;3.50;;;;;;;20.45;45.31;97303.09;4900083;29;20229;-86
2023/02/22 08:46:57;;;;;;;3.80;3.40;;;;;;;20.46;45.03;97301.41;4902540;29;20268;-85
2023/02/22 08:49:24;;;;;;;4.00;3.60;;;;;;;20.42;45.24;97297.03;4894932;29;20280;-86
2023/02/22 08:51:51;;;;;;;4.00;3.63;;;;;;;20.45;45.53;97287.78;4917254;29;20642;-86
2023/02/22 08:54:17;;;;;;;3.87;3.47;;;;;;;20.44;45.63;97288.63;4927706;29;20284;-85
2023/02/22 08:56:44;;;;;;;3.70;3.40;;;;;;;20.06;45.30;97222.75;4899861;29;20217;-84
2023/02/22 08:59:11;;;;;;;5.60;3.57;;;;;;;20.47;45.37;97298.03;4898978;29;20292;-86
2023/02/22 09:01:37;;;;;;;4.03;3.40;;;;;;;20.46;45.46;97291.22;4893135;29;20276;-86
2023/02/22 09:04:05;;;;;;;4.00;3.60;;;;;;;20.47;45.44;97292.94;4899943;29;20240;-85
2023/02/22 09:06:31;;;;;;;4.80;3.40;;;;;;;20.31;45.79;97260.97;4900046;29;20269;-86
2023/02/22 09:08:58;;;;;;;4.70;3.53;;;;;;;20.46;45.83;97281.84;4923713;29;20236;-87
2023/02/22 09:11:24;;;;;;;4.00;3.60;;;;;;;20.47;45.56;97293.81;4897229;29;20600;-86
2023/02/22 09:13:51;;;;;;;3.77;3.40;;;;;;;20.46;45.53;97294.59;4893737;29;20270;-87
2023/02/22 09:16:18;;;;;;;3.93;3.53;;;;;;;20.47;45.64;97286.16;4900713;29;20253;-86
2023/02/22 09:18:44;;;;;;;4.87;3.60;;;;;;;20.47;45.55;97283.59;4898950;29;20229;-86
2023/02/22 09:21:11;;;;;;;4.10;3.70;;;;;;;18.74;45.35;97017.25;4901321;29;20679;-85
2023/02/22 09:23:38;;;;;;;3.33;3.03;;;;;;;20.47;45.62;97272.50;4912062;29;20610;-85
2023/02/22 09:26:07;;;;;;;3.73;3.43;;;;;;;20.47;45.96;97275.94;4906885;29;20205;-85
2023/02/22 09:28:34;;;;;;;3.80;3.40;;;;;;;20.48;45.87;97275.09;4897265;29;20749;-86
2023/02/22 09:31:01;;;;;;;3.83;3.53;;;;;;;20.48;45.50;97274.22;4896662;29;20260;-85
2023/02/22 09:33:27;;;;;;;3.53;3.23;;;;;;;19.51;45.71;97099.53;4893064;29;20209;-86
2023/02/22 09:35:54;;;;;;;3.40;3.07;;;;;;;20.48;45.81;97267.44;4895572;29;20229;-85
2023/02/22 09:38:21;;;;;;;3.47;3.17;;;;;;;20.49;45.78;97273.44;4907755;29;20296;-87
2023/02/22 09:40:53;;;;;;;4.13;3.57;;;;;;;20.49;45.69;97263.22;4899176;29;20202;-87
2023/02/22 09:43:23;;;;;;;3.90;3.30;;;;;;;20.48;45.72;97264.03;4905405;29;20765;-85
2023/02/22 09:46:19;;;;;;;6.20;3.40;;;;;;;20.49;45.74;97263.22;4926526;29;20679;-85
2023/02/22 09:48:52;;;;;;;3.70;3.40;;;;;;;20.48;45.79;97257.25;4906053;29;20233;-86
2023/02/22 09:51:19;;;;;;;3.77;3.30;;;;;;;20.20;45.73;97205.34;4925368;29;20942;-86
2023/02/22 09:53:48;;;;;;;3.80;3.50;;;;;;;20.49;45.79;97256.41;4899220;29;20810;-85
2023/02/22 09:56:17;;;;;;;4.23;3.33;;;;;;;20.48;46.01;97264.03;4898325;29;20321;-86
2023/02/22 09:58:45;;;;;;;3.80;3.40;;;;;;;20.48;45.80;97259.78;4897592;29;20308;-86
2023/02/22 10:01:18;;;;;;;4.83;3.37;;;;;;;20.48;46.02;97249.59;4897453;29;20713;-86
2023/02/22 10:03:50;;;;;;;4.33;3.50;;;;;;;20.50;46.12;97252.19;4921686;29;20263;-87
2023/02/22 10:06:22;;;;;;;3.57;3.27;;;;;;;20.49;45.83;97248.75;4924887;29;20210;-86
2023/02/22 10:08:55;;;;;;;3.40;3.10;;;;;;;20.49;45.62;97240.25;4896437;29;20279;-85
2023/02/22 10:11:52;;;;;;;3.47;3.17;;;;;;;20.28;45.75;97198.78;4898541;29;20243;-86
2023/02/22 10:14:41;;;;;;;3.30;3.00;;;;;;;20.49;46.03;97241.09;4913999;29;20692;-86
2023/02/22 10:17:33;;;;;;;3.47;3.17;;;;;;;20.50;45.92;97240.28;4911643;29;20252;-85
2023/02/22 10:20:15;;;;;;;3.43;3.13;;;;;;;20.50;45.91;97230.09;4917516;29;20297;-85
2023/02/22 10:23:07;;;;;;;3.30;3.00;;;;;;;20.52;45.64;97232.69;4927509;29;20645;-86
2023/02/22 10:25:35;;;;;;;3.50;3.20;;;;;;;20.52;46.15;97225.03;4922146;29;20659;-86
2023/02/22 10:28:23;;;;;;;3.37;3.07;;;;;;;20.53;46.06;97226.75;4906429;29;20723;-86
2023/02/22 10:30:55;;;;;;;3.43;3.13;;;;;;;20.52;45.86;97212.25;4917230;29;20231;-86
2023/02/22 10:33:25;;;;;;;3.17;2.90;;;;;;;20.52;45.90;97209.69;4903255;29;20300;-87
2023/02/22 10:35:52;;;;;;;3.60;3.30;;;;;;;20.51;45.99;97210.50;4895653;29;20240;-86
2023/02/22 10:38:22;;;;;;;3.50;3.20;;;;;;;20.51;45.95;97210.50;4908314;29;20213;-85
2023/02/22 10:40:58;;;;;;;3.37;2.90;;;;;;;20.11;45.87;97137.03;4917073;29;20217;-85
2023/02/22 10:43:24;;;;;;;3.33;3.03;;;;;;;19.04;45.92;96941.81;4919459;29;20212;-85
2023/02/22 10:45:56;;;;;;;3.37;3.07;;;;;;;19.57;45.86;97043.66;4917526;29;20338;-85
2023/02/22 10:48:23;;;;;;;3.37;3.03;;;;;;;20.24;46.05;97161.22;4893796;29;20276;-85
2023/02/22 10:50:51;;;;;;;3.20;2.90;;;;;;;20.09;46.45;97123.38;4893736;29;20203;-86
2023/02/22 10:53:18;;;;;;;3.40;3.10;;;;;;;20.23;45.98;97151.84;4901932;29;20202;-85
2023/02/22 10:56:23;;;;;;;3.10;2.80;;;;;;;20.50;46.12;97186.69;4896243;29;20253;-86
2023/02/22 10:58:58;;;;;;;3.07;2.80;;;;;;;20.49;46.01;97190.03;4880106;29;20285;-86
2023/02/22 11:01:30;;;;;;;3.10;2.80;;;;;;;20.51;45.95;97182.41;4893236;29;20232;-86
2023/02/22 11:03:58;;;;;;;3.67;3.30;;;;;;;20.49;46.00;97178.97;4901529;29;20217;-86
2023/02/22 11:06:24;;;;;;;3.73;3.00;;;;;;;19.95;46.09;97087.25;4912669;29;20197;-87
2023/02/22 11:08:51;;;;;;;3.50;2.90;;;;;;;20.49;46.11;97168.78;4915388;29;20221;-88
2023/02/22 11:11:28;;;;;;;3.03;2.73;;;;;;;20.50;46.09;97171.38;4899861;29;20288;-87
2023/02/22 11:13:55;;;;;;;3.07;2.87;;;;;;;20.50;46.26;97170.50;4915424;29;20235;-86
2023/02/22 11:16:33;;;;;;;3.33;3.03;;;;;;;20.38;46.23;97142.94;4923586;29;20229;-87
2023/02/22 11:19:09;;;;;;;3.17;2.87;;;;;;;20.50;46.20;97163.72;4897097;29;20212;-87
2023/02/22 11:21:36;;;;;;;3.20;2.90;;;;;;;19.64;46.25;97018.38;4898551;29;20213;-86
2023/02/22 11:24:10;;;;;;;3.27;3.00;;;;;;;19.61;46.19;96999.56;4901197;29;20312;-85
2023/02/22 11:26:42;;;;;;;3.50;3.20;;;;;;;19.69;46.16;97015.97;4901456;29;20204;-87
2023/02/22 11:29:31;;;;;;;3.00;2.70;;;;;;;20.19;46.12;97106.69;4901216;29;20651;-87
2023/02/22 11:32:00;;;;;;;3.10;2.80;;;;;;;20.49;46.31;97146.66;4904283;29;20201;-87
2023/02/22 11:34:34;;;;;;;3.00;2.70;;;;;;;20.50;46.28;97139.88;4914656;29;20225;-86
2023/02/22 11:37:32;;;;;;;2.90;2.70;;;;;;;20.50;46.30;97139.88;4913074;29;20656;-85
2023/02/22 11:40:03;;;;;;;3.30;3.00;;;;;;;19.88;46.33;97031.81;4898519;29;20205;-85
2023/02/22 11:42:30;;;;;;;2.83;2.63;;;;;;;19.78;46.00;97011.13;4898759;29;20206;-85
2023/02/22 11:45:10;;;;;;;3.33;3.07;;;;;;;20.50;46.20;97132.19;4917155;29;20232;-86
2023/02/22 11:47:58;;;;;;;2.70;2.50;;;;;;;20.50;46.31;97129.66;4913972;29;20624;-85
2023/02/22 11:50:27;;;;;;;3.30;3.00;;;;;;;20.23;46.12;97073.63;4900015;29;20214;-86